Time;durP1;ratioP1;P1;durP2;ratioP2;P2;SDS_P1;SDS_P2;PMS_P1;PMS_P2;Temp;Humidity;BMP_temperature;BMP_pressure;BME280_temperature;BME280_humidity;BME280_pressure;Samples;Min_cycle;Max_cycle;Signal;HPM_P1;HPM_P2
2023/10/29 00:01:09;;;;;;;4.20;2.10;;;;;;;10.69;72.79;98764.48;82381;1291;3012500;-67
2023/10/29 00:03:35;;;;;;;3.50;2.20;;;;;;;10.64;72.89;98771.89;82357;1289;3011250;-71
2023/10/29 00:06:03;;;;;;;2.50;1.90;;;;;;;10.28;74.14;98777.21;81107;1289;3024616;-69
2023/10/29 00:08:30;;;;;;;5.00;2.30;;;;;;;10.22;74.45;98764.33;82392;1289;3013223;-70
2023/10/29 00:10:56;;;;;;;3.90;1.60;;;;;;;10.20;74.54;98772.84;82343;1289;3011210;-71
2023/10/29 00:13:25;;;;;;;3.90;2.10;;;;;;;10.02;75.32;98763.05;81070;1289;3026364;-69
2023/10/29 00:15:51;;;;;;;4.60;2.00;;;;;;;9.93;75.96;98773.34;82347;1290;3012732;-70
2023/10/29 00:18:18;;;;;;;5.40;2.10;;;;;;;9.90;75.93;98772.84;82380;1289;3010913;-68
2023/10/29 00:20:47;;;;;;;4.70;1.50;;;;;;;9.85;77.18;98775.25;81125;1289;3051607;-68
2023/10/29 00:23:14;;;;;;;3.00;2.00;;;;;;;10.36;75.52;98781.52;82371;1289;3018349;-68
2023/10/29 00:25:40;;;;;;;3.40;2.20;;;;;;;10.57;74.19;98778.16;82359;1293;3011239;-68
2023/10/29 00:28:11;;;;;;;3.20;2.60;;;;;;;10.54;74.19;98781.17;81111;1289;3027245;-69
2023/10/29 00:30:38;;;;;;;5.60;3.00;;;;;;;10.39;74.56;98783.61;82379;1289;3011194;-68
2023/10/29 00:33:06;;;;;;;3.80;3.20;;;;;;;10.28;75.13;98782.46;81029;1291;3024957;-70
2023/10/29 00:35:33;;;;;;;3.70;3.20;;;;;;;10.17;75.47;98774.81;82386;1290;3013597;-69
2023/10/29 00:38:00;;;;;;;4.30;3.70;;;;;;;10.13;75.60;98775.05;82367;1289;3011309;-69
2023/10/29 00:40:30;;;;;;;7.50;4.10;;;;;;;9.98;76.34;98778.57;81123;1289;3025071;-66
2023/10/29 00:43:00;;;;;;;5.40;3.90;;;;;;;10.02;76.28;98771.49;82375;1289;3011352;-68
2023/10/29 00:45:27;;;;;;;6.70;4.20;;;;;;;9.97;76.53;98774.98;81106;1289;3050249;-68
2023/10/29 00:47:54;;;;;;;7.50;3.30;;;;;;;10.00;76.71;98772.16;82281;1295;3012350;-70
2023/10/29 00:50:20;;;;;;;5.80;3.50;;;;;;;10.57;75.42;98773.77;82373;1289;3011801;-71
2023/10/29 00:52:48;;;;;;;12.50;3.30;;;;;;;10.75;74.08;98777.42;81002;1289;3026421;-65
2023/10/29 00:55:15;;;;;;;4.50;2.80;;;;;;;10.78;73.68;98777.01;82279;1289;3012750;-67
2023/10/29 00:57:41;;;;;;;3.40;2.60;;;;;;;10.72;73.69;98778.86;82257;1289;3011323;-66
2023/10/29 01:00:10;;;;;;;3.00;2.10;;;;;;;10.62;74.05;98778.83;80926;1289;3026623;-68
2023/10/29 01:02:37;;;;;;;6.50;2.40;;;;;;;10.51;74.24;98779.78;82356;1291;3011460;-67
2023/10/29 01:05:05;;;;;;;4.40;2.50;;;;;;;10.34;74.92;98782.61;82381;1289;3010872;-68
2023/10/29 01:07:32;;;;;;;5.70;2.60;;;;;;;10.31;75.07;98783.66;81123;1289;3050695;-65
2023/10/29 01:09:59;;;;;;;4.50;2.40;;;;;;;10.24;75.31;98793.73;82286;1289;3018548;-68
2023/10/29 01:12:27;;;;;;;6.60;2.50;;;;;;;10.20;75.50;98787.16;82361;1289;3011256;-68
2023/10/29 01:14:55;;;;;;;7.40;3.50;;;;;;;10.14;75.94;98800.73;81137;1289;3048509;-68
2023/10/29 01:17:21;;;;;;;7.10;3.00;;;;;;;10.07;76.37;98800.16;82385;1290;3013235;-68
2023/10/29 01:19:47;;;;;;;4.70;2.50;;;;;;;10.08;76.62;98801.30;82384;1289;3011090;-68
2023/10/29 01:22:16;;;;;;;4.80;2.60;;;;;;;10.73;75.15;98802.90;81111;1289;3026370;-69
2023/10/29 01:24:43;;;;;;;7.20;3.10;;;;;;;11.27;72.65;98799.05;82407;1289;3011286;-67
2023/10/29 01:27:10;;;;;;;9.00;3.30;;;;;;;11.28;71.74;98803.85;82384;1289;3011439;-70
2023/10/29 01:29:37;;;;;;;6.00;3.20;;;;;;;11.23;72.02;98801.25;81089;1291;3049583;-68
2023/10/29 01:32:04;;;;;;;9.40;3.20;;;;;;;10.99;72.17;98799.69;82358;1289;3018535;-69
2023/10/29 01:34:31;;;;;;;9.40;3.30;;;;;;;10.86;72.61;98805.36;82367;1289;3011258;-67
2023/10/29 01:36:58;;;;;;;6.50;3.00;;;;;;;10.87;72.66;98808.20;80992;1291;3027864;-69
2023/10/29 01:39:25;;;;;;;15.10;3.50;;;;;;;10.80;72.55;98806.98;82379;1289;3018295;-69
2023/10/29 01:41:55;;;;;;;9.80;3.50;;;;;;;10.75;72.58;98805.95;82373;1289;3011194;-68
2023/10/29 01:44:23;;;;;;;7.80;3.80;;;;;;;10.74;72.60;98816.90;81089;1289;3049537;-69
2023/10/29 01:46:50;;;;;;;7.80;3.90;;;;;;;10.67;72.63;98810.00;82377;1291;3013232;-69
2023/10/29 01:49:17;;;;;;;9.70;3.70;;;;;;;10.70;72.51;98813.63;82381;1289;3011287;-65
2023/10/29 01:51:44;;;;;;;8.20;4.40;;;;;;;10.69;72.84;98812.90;81088;1292;3052177;-67
2023/10/29 01:54:11;;;;;;;9.60;4.20;;;;;;;10.70;72.82;98819.95;82326;1291;3012566;-65
2023/10/29 01:56:38;;;;;;;10.40;4.70;;;;;;;10.70;72.90;98816.27;82259;1291;3011519;-70
2023/10/29 01:59:06;;;;;;;12.50;4.60;;;;;;;10.65;73.33;98830.69;80916;1292;3050532;-69
2023/10/29 02:01:33;;;;;;;8.50;5.00;;;;;;;10.64;73.27;98832.69;82259;1291;3012797;-69
2023/10/29 02:04:00;;;;;;;14.50;5.40;;;;;;;10.68;73.12;98837.06;82286;1291;3011424;-67
2023/10/29 02:06:29;;;;;;;18.10;6.30;;;;;;;10.64;73.36;98840.86;81012;1291;3051164;-70
2023/10/29 02:08:56;;;;;;;20.20;6.60;;;;;;;10.69;73.23;98842.61;82210;1292;3018789;-70
2023/10/29 02:11:23;;;;;;;18.50;8.00;;;;;;;10.70;73.03;98859.05;82096;1289;3011349;-71
2023/10/29 02:13:51;;;;;;;18.50;7.70;;;;;;;10.72;73.12;98853.94;81056;1290;3049479;-69
2023/10/29 02:16:17;;;;;;;25.60;9.00;;;;;;;10.71;73.00;98860.35;82149;1297;3018686;-68
2023/10/29 02:18:44;;;;;;;26.50;9.60;;;;;;;10.80;72.82;98859.58;82289;1291;3011343;-70
2023/10/29 02:21:12;;;;;;;30.00;9.40;;;;;;;10.85;72.56;98858.27;81017;1291;3027541;-67
2023/10/29 02:23:39;;;;;;;18.20;8.40;;;;;;;10.81;72.60;98862.31;82333;1291;3012559;-68
2023/10/29 02:26:05;;;;;;;25.10;8.40;;;;;;;10.82;72.84;98874.50;82244;1291;3011381;-71
2023/10/29 02:28:34;;;;;;;19.30;7.40;;;;;;;10.82;72.76;98872.35;80923;1291;3048171;-68
2023/10/29 02:31:00;;;;;;;19.80;7.30;;;;;;;10.88;72.72;98880.17;82171;1294;3012557;-66
2023/10/29 02:33:27;;;;;;;14.00;6.80;;;;;;;10.86;72.68;98878.19;82200;1291;3011155;-70
2023/10/29 02:35:54;;;;;;;17.40;7.80;;;;;;;10.83;72.96;98883.83;81013;1291;3025666;-69
2023/10/29 02:38:21;;;;;;;20.90;7.40;;;;;;;10.83;73.18;98879.34;82292;1290;3013235;-70
2023/10/29 02:40:47;;;;;;;15.00;5.60;;;;;;;10.86;72.89;98881.55;82253;1291;3011563;-70
2023/10/29 02:43:16;;;;;;;9.50;5.00;;;;;;;10.79;73.12;98892.23;81003;1292;3025628;-72
2023/10/29 02:45:42;;;;;;;7.10;3.30;;;;;;;10.80;72.79;98911.92;82308;1291;3018111;-71
2023/10/29 02:48:09;;;;;;;9.20;3.80;;;;;;;10.63;73.27;98918.52;82243;1291;3011415;-66
2023/10/29 02:50:37;;;;;;;6.60;4.00;;;;;;;10.38;74.14;98925.84;81011;1291;3026324;-71
2023/10/29 02:53:04;;;;;;;9.90;3.00;;;;;;;10.19;75.30;98931.13;82251;1291;3013108;-72
2023/10/29 02:55:30;;;;;;;6.30;2.90;;;;;;;10.55;75.14;98937.14;82246;1291;3011621;-69
2023/10/29 02:57:58;;;;;;;6.10;2.60;;;;;;;11.01;73.31;98945.67;81014;1290;3049289;-69
2023/10/29 03:00:24;;;;;;;4.90;2.90;;;;;;;11.04;72.51;98948.94;82279;1291;3012264;-71
2023/10/29 03:02:51;;;;;;;5.30;2.50;;;;;;;10.70;72.93;98954.66;82287;1291;3011128;-69
2023/10/29 03:05:19;;;;;;;2.90;1.90;;;;;;;10.29;73.97;98957.23;81010;1292;3025907;-69
2023/10/29 03:07:45;;;;;;;3.60;2.20;;;;;;;10.09;74.73;98959.27;82295;1291;3013166;-71
2023/10/29 03:10:12;;;;;;;3.10;1.80;;;;;;;9.78;75.82;98969.15;82272;1290;3011265;-67
2023/10/29 03:12:39;;;;;;;2.80;1.80;;;;;;;9.59;76.65;98978.10;81020;1290;3025598;-67
2023/10/29 03:15:06;;;;;;;2.60;1.90;;;;;;;9.17;78.81;98982.83;82336;1291;3012680;-66
2023/10/29 03:17:33;;;;;;;4.20;2.00;;;;;;;9.03;79.57;98973.55;82308;1291;3011499;-68
2023/10/29 03:20:01;;;;;;;3.20;2.10;;;;;;;9.06;79.66;98978.63;80956;1289;3025345;-68
2023/10/29 03:22:27;;;;;;;5.60;1.30;;;;;;;9.04;79.76;98978.02;82242;1291;3012687;-66
2023/10/29 03:24:53;;;;;;;2.60;1.70;;;;;;;9.82;78.06;98976.61;82273;1293;3011523;-70
2023/10/29 03:27:21;;;;;;;3.90;1.90;;;;;;;9.95;76.37;98973.30;81029;1291;3026241;-69
2023/10/29 03:29:47;;;;;;;3.20;1.80;;;;;;;9.93;76.36;98968.22;82220;1294;3012621;-68
2023/10/29 03:32:14;;;;;;;2.80;1.40;;;;;;;9.84;76.74;98976.15;82257;1291;3011164;-68
2023/10/29 03:34:43;;;;;;;6.30;1.70;;;;;;;9.64;77.02;98978.80;80922;1291;3025736;-68
2023/10/29 03:37:10;;;;;;;3.40;1.90;;;;;;;9.44;77.92;98980.95;82305;1291;3012753;-69
2023/10/29 03:39:36;;;;;;;2.40;1.50;;;;;;;9.34;78.20;98982.46;82265;1290;3011315;-67
2023/10/29 03:42:04;;;;;;;4.20;1.80;;;;;;;9.36;77.39;98987.23;80929;1292;3049909;-70
2023/10/29 03:44:31;;;;;;;2.70;1.80;;;;;;;9.06;79.02;98989.48;82274;1294;3013088;-71
2023/10/29 03:46:57;;;;;;;2.40;1.60;;;;;;;8.83;80.29;98996.61;82200;1294;3011332;-70
2023/10/29 03:49:25;;;;;;;3.30;1.30;;;;;;;8.85;80.24;99001.70;80896;1293;3026185;-71
2023/10/29 03:51:52;;;;;;;2.50;1.10;;;;;;;9.23;80.27;98997.65;82262;1290;3018658;-66
2023/10/29 03:54:18;;;;;;;4.80;2.00;;;;;;;9.77;77.31;99004.20;82217;1291;3011334;-66
2023/10/29 03:56:46;;;;;;;2.60;1.80;;;;;;;10.13;76.42;99013.95;80991;1292;3026387;-66
2023/10/29 03:59:12;;;;;;;4.60;1.90;;;;;;;9.89;75.47;99012.58;82234;1291;3018409;-64
2023/10/29 04:01:39;;;;;;;5.80;2.00;;;;;;;9.59;76.43;99020.89;82273;1291;3011412;-64
2023/10/29 04:04:08;;;;;;;5.90;2.40;;;;;;;9.22;77.88;99019.22;80916;1292;3025108;-69
2023/10/29 04:06:34;;;;;;;6.60;2.70;;;;;;;8.98;78.81;99021.04;82286;1291;3012556;-65
2023/10/29 04:09:01;;;;;;;5.80;2.80;;;;;;;8.80;79.39;99028.04;82206;1291;3011101;-68
2023/10/29 04:11:29;;;;;;;8.60;2.70;;;;;;;8.55;80.81;99033.40;81032;1291;3049871;-67
2023/10/29 04:13:55;;;;;;;3.80;2.00;;;;;;;8.62;80.91;99032.11;82262;1292;3012948;-68
2023/10/29 04:16:22;;;;;;;4.50;2.10;;;;;;;9.18;79.22;99030.28;82173;1294;3011335;-68
2023/10/29 04:18:50;;;;;;;6.30;2.20;;;;;;;9.42;77.90;99039.10;80970;1291;3024975;-70
2023/10/29 04:21:16;;;;;;;3.30;2.30;;;;;;;9.58;76.30;99034.44;82308;1291;3012385;-72
2023/10/29 04:23:43;;;;;;;5.90;2.70;;;;;;;9.40;76.69;99028.96;82192;1291;3011407;-71
2023/10/29 04:26:10;;;;;;;4.80;2.60;;;;;;;9.17;77.30;99032.29;80984;1291;3025031;-71
2023/10/29 04:28:37;;;;;;;5.20;2.20;;;;;;;8.93;78.48;99042.29;82261;1294;3018703;-70
2023/10/29 04:31:03;;;;;;;5.20;2.60;;;;;;;8.94;78.19;99043.80;82246;1291;3011493;-69
2023/10/29 04:33:32;;;;;;;3.10;1.90;;;;;;;8.93;78.21;99040.03;80975;1291;3024922;-70
2023/10/29 04:35:59;;;;;;;3.20;2.00;;;;;;;8.86;78.77;99041.31;82215;1294;3012362;-71
2023/10/29 04:38:25;;;;;;;4.60;2.30;;;;;;;9.52;77.23;99048.65;82192;1291;3011305;-70
2023/10/29 04:40:53;;;;;;;4.90;1.80;;;;;;;10.03;75.20;99052.42;80980;1291;3049490;-70
2023/10/29 04:43:20;;;;;;;3.60;2.20;;;;;;;9.86;74.76;99065.24;82267;1296;3012391;-70
2023/10/29 04:45:46;;;;;;;5.50;2.70;;;;;;;9.66;75.16;99058.94;82234;1295;3011343;-71
2023/10/29 04:48:16;;;;;;;3.50;2.10;;;;;;;9.64;75.07;99056.96;80958;1291;3025836;-70
2023/10/29 04:50:42;;;;;;;5.90;2.40;;;;;;;9.30;76.29;99066.77;82267;1291;3011844;-71
2023/10/29 04:53:08;;;;;;;3.90;2.40;;;;;;;9.25;76.44;99072.51;82226;1292;3011353;-71
2023/10/29 04:55:36;;;;;;;4.80;2.20;;;;;;;9.17;76.72;99078.78;80974;1291;3048408;-72
2023/10/29 04:58:03;;;;;;;6.70;2.50;;;;;;;9.05;77.28;99075.27;82219;1297;3012243;-69
2023/10/29 05:00:29;;;;;;;3.60;2.20;;;;;;;8.95;77.75;99087.27;82198;1291;3011287;-72
2023/10/29 05:02:57;;;;;;;5.70;2.80;;;;;;;9.17;77.69;99092.76;80988;1291;3025948;-72
2023/10/29 05:05:24;;;;;;;4.70;2.40;;;;;;;9.71;76.25;99082.59;82219;1291;3012669;-69
2023/10/29 05:07:50;;;;;;;5.20;2.50;;;;;;;9.93;74.96;99093.09;82224;1291;3011361;-71
2023/10/29 05:10:18;;;;;;;4.40;2.40;;;;;;;9.88;74.81;99092.36;80947;1295;3026884;-71
2023/10/29 05:12:44;;;;;;;3.80;2.80;;;;;;;9.68;75.25;99096.26;82254;1294;3018745;-71
2023/10/29 05:15:12;;;;;;;7.60;2.50;;;;;;;9.57;75.68;99104.64;82296;1290;3011290;-71
2023/10/29 05:17:41;;;;;;;4.90;2.70;;;;;;;9.49;76.06;99093.41;81055;1290;3050747;-71
2023/10/29 05:20:09;;;;;;;6.30;2.80;;;;;;;9.37;76.62;99098.00;82290;1291;3012733;-72
2023/10/29 05:22:36;;;;;;;9.20;3.10;;;;;;;9.50;76.03;99096.16;82255;1291;3011322;-72
2023/10/29 05:25:06;;;;;;;4.30;3.00;;;;;;;9.34;76.83;99098.55;81008;1291;3049722;-70
2023/10/29 05:27:34;;;;;;;4.10;2.20;;;;;;;9.31;77.48;99096.27;82279;1291;3010966;-71
2023/10/29 05:30:05;;;;;;;4.30;2.40;;;;;;;9.84;76.46;99092.25;81777;1291;3011372;-73
2023/10/29 05:32:32;;;;;;;4.80;2.60;;;;;;;10.62;73.89;99092.54;82296;1294;3011251;-71
2023/10/29 05:35:00;;;;;;;4.80;2.90;;;;;;;10.51;73.22;99090.45;81020;1291;3026796;-71
2023/10/29 05:37:27;;;;;;;6.00;2.50;;;;;;;10.43;73.36;99099.71;82250;1294;3012781;-70
2023/10/29 05:39:53;;;;;;;7.50;2.90;;;;;;;10.18;74.35;99100.61;82270;1291;3011337;-69
2023/10/29 05:42:21;;;;;;;6.10;3.20;;;;;;;10.07;74.84;99095.73;80976;1291;3026122;-70
2023/10/29 05:44:47;;;;;;;4.40;2.70;;;;;;;10.03;74.92;99098.59;82273;1294;3019146;-72
2023/10/29 05:47:14;;;;;;;5.10;2.80;;;;;;;10.01;74.93;99104.85;82284;1291;3011037;-70
2023/10/29 05:49:42;;;;;;;4.70;2.80;;;;;;;9.96;75.05;99103.95;81012;1291;3025787;-71
2023/10/29 05:52:08;;;;;;;6.30;3.10;;;;;;;10.01;74.91;99104.01;82305;1291;3018370;-70
2023/10/29 05:54:35;;;;;;;6.60;2.90;;;;;;;9.95;75.16;99105.95;82234;1291;3011226;-72
2023/10/29 05:57:02;;;;;;;4.10;2.80;;;;;;;9.95;75.15;99110.50;81008;1291;3026227;-70
2023/10/29 05:59:29;;;;;;;4.30;2.20;;;;;;;9.94;75.67;99109.83;82314;1291;3012289;-72
2023/10/29 06:01:55;;;;;;;5.50;2.80;;;;;;;10.46;74.39;99105.48;82232;1291;3011129;-71
2023/10/29 06:04:23;;;;;;;5.60;2.80;;;;;;;11.01;72.45;99113.38;81024;1291;3026422;-68
2023/10/29 06:06:49;;;;;;;7.30;2.70;;;;;;;10.98;71.64;99117.80;82282;1291;3018628;-71
2023/10/29 06:09:16;;;;;;;5.30;3.10;;;;;;;10.88;72.05;99115.30;82281;1290;3011093;-71
2023/10/29 06:11:44;;;;;;;5.50;2.70;;;;;;;10.86;72.01;99111.55;80981;1291;3026006;-71
2023/10/29 06:14:10;;;;;;;4.30;2.30;;;;;;;10.81;72.14;99115.80;82325;1291;3012397;-70
2023/10/29 06:16:37;;;;;;;5.10;3.00;;;;;;;10.60;72.80;99127.30;82222;1291;3011359;-68
2023/10/29 06:19:05;;;;;;;7.10;3.20;;;;;;;10.51;73.42;99139.98;81002;1291;3026324;-69
2023/10/29 06:21:32;;;;;;;5.00;3.00;;;;;;;10.54;72.99;99141.73;82225;1291;3012831;-69
2023/10/29 06:23:58;;;;;;;6.80;2.80;;;;;;;10.56;73.18;99134.77;82269;1291;3011379;-68
2023/10/29 06:26:26;;;;;;;6.30;2.70;;;;;;;10.55;73.31;99133.44;80991;1292;3027625;-67
2023/10/29 06:28:52;;;;;;;7.00;2.90;;;;;;;10.59;73.29;99137.90;82287;1292;3012868;-70
2023/10/29 06:31:19;;;;;;;7.10;3.40;;;;;;;10.49;73.98;99143.12;82274;1291;3011166;-65
2023/10/29 06:33:47;;;;;;;8.50;2.70;;;;;;;10.58;73.82;99141.13;80840;1292;3025599;-69
2023/10/29 06:36:14;;;;;;;5.70;2.60;;;;;;;10.63;73.43;99147.81;82270;1292;3012306;-72
2023/10/29 06:38:40;;;;;;;3.80;2.00;;;;;;;10.61;74.19;99153.34;82273;1291;3011373;-70
2023/10/29 06:41:08;;;;;;;7.50;2.50;;;;;;;11.30;72.65;99151.02;80983;1294;3027099;-70
2023/10/29 06:43:35;;;;;;;5.30;2.50;;;;;;;11.98;70.41;99145.40;82290;1294;3018285;-71
2023/10/29 06:46:01;;;;;;;4.40;2.40;;;;;;;11.99;69.43;99147.11;82290;1290;3011119;-70
2023/10/29 06:48:29;;;;;;;4.20;2.40;;;;;;;12.05;69.31;99151.58;81029;1291;3025820;-70
2023/10/29 06:50:56;;;;;;;6.60;2.40;;;;;;;11.97;69.73;99144.65;82259;1292;3012656;-72
2023/10/29 06:53:22;;;;;;;7.50;3.10;;;;;;;11.83;70.02;99151.58;82267;1291;3011267;-71
2023/10/29 06:55:50;;;;;;;7.50;3.00;;;;;;;11.87;70.00;99149.55;80995;1294;3026478;-69
2023/10/29 06:58:16;;;;;;;4.70;2.80;;;;;;;11.90;69.78;99156.84;82273;1294;3012528;-70
2023/10/29 07:00:43;;;;;;;7.60;2.90;;;;;;;11.92;69.56;99161.63;82287;1291;3011440;-72
2023/10/29 07:03:11;;;;;;;4.50;2.70;;;;;;;11.85;70.29;99158.79;81001;1291;3025975;-68
2023/10/29 07:05:37;;;;;;;5.60;2.40;;;;;;;11.93;70.00;99163.13;82298;1291;3012907;-70
2023/10/29 07:08:04;;;;;;;6.10;2.50;;;;;;;11.97;69.65;99166.94;82262;1290;3011451;-74
2023/10/29 07:10:31;;;;;;;5.40;2.40;;;;;;;12.07;69.61;99162.89;81011;1292;3025594;-72
2023/10/29 07:12:58;;;;;;;6.20;2.70;;;;;;;12.08;69.63;99161.41;82304;1291;3012963;-70
2023/10/29 07:15:25;;;;;;;6.30;2.70;;;;;;;12.08;69.42;99168.30;79875;1291;3185947;-71
2023/10/29 07:17:53;;;;;;;6.80;2.50;;;;;;;12.13;69.13;99174.90;80977;1291;3025984;-70
2023/10/29 07:20:19;;;;;;;4.90;2.90;;;;;;;12.20;68.79;99179.71;82301;1291;3012584;-70
2023/10/29 07:22:45;;;;;;;6.80;3.00;;;;;;;12.16;68.55;99173.31;82226;1291;3011226;-70
2023/10/29 07:25:13;;;;;;;5.60;2.30;;;;;;;12.15;69.15;99174.79;80977;1294;3025959;-73
2023/10/29 07:27:40;;;;;;;5.40;2.70;;;;;;;12.24;68.76;99175.88;82266;1291;3012379;-72
2023/10/29 07:30:07;;;;;;;6.10;2.70;;;;;;;12.25;68.50;99183.04;82228;1291;3011234;-71
2023/10/29 07:32:35;;;;;;;5.10;2.70;;;;;;;12.32;68.75;99178.30;80930;1292;3051609;-72
2023/10/29 07:35:02;;;;;;;5.70;2.30;;;;;;;12.38;68.27;99186.13;82233;1291;3018257;-70
2023/10/29 07:37:28;;;;;;;7.60;2.70;;;;;;;12.40;67.83;99197.75;82225;1292;3011337;-71
2023/10/29 07:39:56;;;;;;;8.80;3.20;;;;;;;12.33;68.00;99195.13;80957;1292;3025887;-70
2023/10/29 07:42:24;;;;;;;5.10;2.90;;;;;;;12.18;68.66;99204.22;82244;1294;3018374;-70
2023/10/29 07:44:51;;;;;;;9.50;3.20;;;;;;;12.30;68.30;99208.86;82215;1292;3011877;-70
2023/10/29 07:47:19;;;;;;;7.60;3.20;;;;;;;12.31;69.03;99196.50;81012;1291;3050400;-71
2023/10/29 07:49:45;;;;;;;6.90;3.50;;;;;;;12.46;68.21;99203.45;82230;1291;3018528;-71
2023/10/29 07:52:12;;;;;;;7.00;3.20;;;;;;;12.47;68.12;99215.71;82236;1292;3011266;-66
2023/10/29 07:54:40;;;;;;;6.90;3.20;;;;;;;12.55;67.81;99223.16;80970;1291;3026104;-71
2023/10/29 07:57:07;;;;;;;6.70;3.00;;;;;;;12.63;67.58;99219.48;82246;1294;3012729;-72
2023/10/29 07:59:36;;;;;;;7.20;3.00;;;;;;;12.71;67.68;99221.14;82215;1295;3011565;-73
2023/10/29 08:02:04;;;;;;;7.60;3.90;;;;;;;12.80;67.39;99225.79;80979;1291;3050202;-70
2023/10/29 08:04:30;;;;;;;7.40;3.20;;;;;;;12.84;67.51;99227.76;82258;1291;3012745;-68
2023/10/29 08:06:57;;;;;;;8.50;3.20;;;;;;;12.95;67.24;99229.77;82206;1291;3011385;-72
2023/10/29 08:09:24;;;;;;;8.50;3.90;;;;;;;13.05;66.83;99226.03;80983;1291;3026705;-71
2023/10/29 08:11:51;;;;;;;5.70;3.10;;;;;;;13.13;66.70;99234.95;82249;1295;3012778;-71
2023/10/29 08:14:17;;;;;;;6.60;3.50;;;;;;;13.21;66.13;99237.14;82275;1292;3011240;-72
2023/10/29 08:16:45;;;;;;;6.60;3.00;;;;;;;13.28;65.97;99226.80;81011;1294;3027455;-71
2023/10/29 08:19:11;;;;;;;9.80;3.10;;;;;;;13.47;65.52;99230.17;82288;1292;3018201;-72
2023/10/29 08:21:38;;;;;;;6.70;2.70;;;;;;;13.53;64.32;99231.77;82235;1294;3011455;-71
2023/10/29 08:24:06;;;;;;;13.40;3.70;;;;;;;13.63;64.42;99240.90;80973;1292;3026160;-72
2023/10/29 08:26:33;;;;;;;6.30;2.30;;;;;;;13.71;64.20;99236.17;82282;1292;3018013;-72
2023/10/29 08:28:59;;;;;;;7.20;2.10;;;;;;;13.79;63.48;99242.15;82250;1292;3011222;-70
2023/10/29 08:31:27;;;;;;;5.40;1.70;;;;;;;13.82;63.35;99249.97;80989;1294;3025735;-73
2023/10/29 08:33:54;;;;;;;4.90;1.70;;;;;;;13.80;62.54;99254.34;82287;1291;3013021;-73
2023/10/29 08:36:21;;;;;;;4.10;2.00;;;;;;;13.76;62.44;99253.45;82219;1291;3011427;-69
2023/10/29 08:38:48;;;;;;;3.80;1.70;;;;;;;13.74;62.55;99252.89;81009;1291;3026321;-70
2023/10/29 08:41:15;;;;;;;4.70;2.00;;;;;;;13.70;62.90;99260.02;82285;1294;3012726;-71
2023/10/29 08:43:42;;;;;;;3.30;1.90;;;;;;;13.70;62.78;99265.88;82256;1292;3011347;-69
2023/10/29 08:46:10;;;;;;;3.50;1.80;;;;;;;13.67;62.60;99281.27;81025;1292;3027109;-70
2023/10/29 08:48:37;;;;;;;3.90;1.70;;;;;;;13.75;62.48;99274.67;82221;1292;3018267;-71
2023/10/29 08:51:04;;;;;;;5.30;2.30;;;;;;;13.68;62.90;99266.16;82266;1292;3011213;-70
2023/10/29 08:53:32;;;;;;;4.90;2.00;;;;;;;13.69;63.42;99266.16;81072;1290;3025688;-72
2023/10/29 08:55:58;;;;;;;5.40;2.00;;;;;;;13.74;63.24;99273.84;82350;1294;3012319;-71
2023/10/29 08:58:25;;;;;;;3.50;1.80;;;;;;;13.69;63.42;99271.20;82319;1289;3011567;-72
2023/10/29 09:00:57;;;;;;;3.70;1.60;;;;;;;13.70;63.27;99268.70;81092;1289;3026678;-69
2023/10/29 09:03:25;;;;;;;4.00;1.80;;;;;;;13.74;63.20;99264.64;82237;1292;3011293;-71
2023/10/29 09:06:01;;;;;;;5.10;1.70;;;;;;;13.82;63.09;99265.48;80981;1292;3048029;-71
2023/10/29 09:08:37;;;;;;;4.80;1.80;;;;;;;13.83;63.04;99274.72;80970;1289;3052349;-71
2023/10/29 09:11:05;;;;;;;4.60;2.00;;;;;;;13.89;62.79;99272.50;81084;1292;3048488;-71
2023/10/29 09:13:32;;;;;;;4.80;1.50;;;;;;;13.94;62.46;99265.80;82268;1294;3012850;-70
2023/10/29 09:15:59;;;;;;;4.70;1.80;;;;;;;13.99;62.28;99266.49;82249;1290;3010908;-71
2023/10/29 09:18:27;;;;;;;4.50;1.80;;;;;;;14.06;62.27;99259.42;80987;1294;3051185;-70
2023/10/29 09:20:53;;;;;;;4.80;1.50;;;;;;;14.09;61.53;99262.82;82286;1291;3018821;-69
2023/10/29 09:23:20;;;;;;;7.30;1.60;;;;;;;14.11;61.24;99274.66;82249;1292;3011338;-70
2023/10/29 09:25:48;;;;;;;2.40;1.60;;;;;;;14.12;60.85;99272.14;80923;1292;3026291;-69
2023/10/29 09:28:14;;;;;;;3.50;1.60;;;;;;;14.16;61.25;99263.88;82266;1294;3012760;-69
2023/10/29 09:30:41;;;;;;;4.40;1.90;;;;;;;14.23;61.10;99265.65;82236;1291;3011299;-70
2023/10/29 09:33:11;;;;;;;6.30;1.90;;;;;;;14.27;61.12;99268.81;81013;1295;3051639;-70
2023/10/29 09:35:38;;;;;;;4.90;1.90;;;;;;;14.38;60.88;99267.10;82252;1293;3012765;-70
2023/10/29 09:38:04;;;;;;;3.70;1.70;;;;;;;14.41;60.98;99272.70;82281;1291;3011227;-69
2023/10/29 09:40:32;;;;;;;3.50;1.80;;;;;;;14.45;60.78;99275.15;81001;1293;3049369;-72
2023/10/29 09:43:08;;;;;;;4.00;1.80;;;;;;;14.52;60.77;99270.20;82272;1294;3012864;-73
2023/10/29 09:45:45;;;;;;;6.10;1.90;;;;;;;14.57;60.67;99272.13;81027;1290;3070391;-72
2023/10/29 09:48:14;;;;;;;3.70;1.70;;;;;;;14.68;60.29;99277.95;81027;1292;3050974;-73
2023/10/29 09:50:43;;;;;;;3.60;1.80;;;;;;;14.69;60.43;99274.92;82305;1291;3011473;-71
2023/10/29 09:53:12;;;;;;;4.70;2.00;;;;;;;14.73;60.25;99278.96;81733;1292;3011336;-72
2023/10/29 09:55:39;;;;;;;5.80;2.10;;;;;;;14.71;59.91;99280.38;82267;1291;3013141;-70
2023/10/29 09:58:06;;;;;;;5.90;2.20;;;;;;;14.69;59.93;99289.30;82283;1293;3011157;-70
2023/10/29 10:00:36;;;;;;;4.20;2.20;;;;;;;14.81;60.05;99284.67;80996;1292;3052259;-69
2023/10/29 10:03:03;;;;;;;6.50;2.70;;;;;;;14.79;59.68;99287.98;82179;1296;3011170;-70
2023/10/29 10:05:30;;;;;;;7.20;2.10;;;;;;;14.66;59.66;99294.34;82285;1290;3011153;-70
2023/10/29 10:07:58;;;;;;;4.70;2.40;;;;;;;14.60;60.04;99291.80;81023;1291;3048359;-71
2023/10/29 10:10:38;;;;;;;4.20;1.80;;;;;;;14.64;60.06;99290.08;82286;1291;3012660;-70
2023/10/29 10:13:06;;;;;;;2.70;1.70;;;;;;;14.66;59.87;99288.85;81015;1292;3052288;-70
2023/10/29 10:15:33;;;;;;;7.40;2.20;;;;;;;14.59;60.14;99295.02;82384;1289;3018559;-70
2023/10/29 10:18:00;;;;;;;2.50;1.80;;;;;;;14.73;59.98;99289.21;82332;1290;3010904;-71
2023/10/29 10:20:28;;;;;;;6.30;1.80;;;;;;;14.88;59.69;99284.42;80953;1289;3055492;-73
2023/10/29 10:23:04;;;;;;;12.40;2.00;;;;;;;14.89;59.46;99281.88;82333;1290;3013076;-71
2023/10/29 10:25:34;;;;;;;4.20;2.10;;;;;;;15.01;59.51;99279.86;80981;1291;3050338;-69
2023/10/29 10:28:02;;;;;;;5.70;2.10;;;;;;;15.08;59.17;99275.77;82333;1289;3011439;-69
2023/10/29 10:30:31;;;;;;;7.00;2.50;;;;;;;15.06;59.25;99279.46;81841;1290;3011614;-70
2023/10/29 10:33:22;;;;;;;6.20;3.00;;;;;;;15.15;58.53;99282.83;82363;1291;3011220;-73
2023/10/29 10:35:59;;;;;;;5.50;2.30;;;;;;;15.28;57.84;99286.73;81060;1289;3055972;-72
2023/10/29 10:38:27;;;;;;;5.70;1.90;;;;;;;15.32;57.67;99279.25;81086;1289;3049201;-70
2023/10/29 10:41:00;;;;;;;4.80;1.80;;;;;;;15.48;57.53;99281.28;82325;1289;3012529;-74
2023/10/29 10:43:28;;;;;;;4.00;1.90;;;;;;;15.45;57.03;99286.50;80991;1292;3053346;-72
2023/10/29 10:45:54;;;;;;;8.80;2.10;;;;;;;15.35;56.66;99278.27;82244;1292;3013238;-72
2023/10/29 10:48:21;;;;;;;6.90;1.60;;;;;;;15.46;56.83;99280.89;82313;1289;3011246;-72
2023/10/29 10:50:53;;;;;;;2.90;1.50;;;;;;;15.56;56.50;99283.94;80990;1294;3026391;-72
2023/10/29 10:53:19;;;;;;;3.90;1.60;;;;;;;15.61;55.89;99291.16;82256;1291;3011406;-71
2023/10/29 10:55:47;;;;;;;3.10;1.40;;;;;;;15.71;55.88;99291.22;81043;1290;3026243;-72
2023/10/29 10:58:13;;;;;;;3.10;1.70;;;;;;;15.75;55.59;99300.41;82173;1296;3018197;-72
2023/10/29 11:00:40;;;;;;;3.50;1.50;;;;;;;15.71;55.91;99300.05;82164;1292;3010941;-72
2023/10/29 11:03:08;;;;;;;5.30;1.60;;;;;;;15.66;55.92;99296.39;80928;1291;3027325;-70
2023/10/29 11:05:35;;;;;;;4.60;1.60;;;;;;;15.64;56.44;99303.11;82288;1291;3018373;-71
2023/10/29 11:08:02;;;;;;;4.40;2.20;;;;;;;15.71;55.93;99295.42;82195;1291;3011136;-72
2023/10/29 11:10:30;;;;;;;3.60;1.70;;;;;;;15.66;56.20;99294.58;81098;1289;3025671;-71
2023/10/29 11:12:56;;;;;;;3.80;2.00;;;;;;;15.66;56.22;99299.55;82378;1289;3013136;-73
2023/10/29 11:15:23;;;;;;;4.40;1.40;;;;;;;15.71;56.82;99298.91;82113;1292;3011253;-73
2023/10/29 11:18:00;;;;;;;3.50;1.70;;;;;;;15.83;56.63;99298.20;81004;1291;3026449;-73
2023/10/29 11:20:41;;;;;;;2.70;1.90;;;;;;;15.96;56.73;99291.23;81011;1292;3051826;-72